createdAt,value
2023-10-03T00:01:28.978Z,19.36
2023-10-03T00:03:02.483Z,19.37
2023-10-03T00:04:35.750Z,19.39
2023-10-03T00:06:07.771Z,19.38
2023-10-03T00:07:39.733Z,19.36
2023-10-03T00:09:12.028Z,19.34
2023-10-03T00:10:43.993Z,19.36
2023-10-03T00:12:16.011Z,19.37
2023-10-03T00:13:48.369Z,19.39
2023-10-03T00:15:22.315Z,19.40
2023-10-03T00:16:54.268Z,19.40
2023-10-03T00:18:26.400Z,19.41
2023-10-03T00:19:58.458Z,19.42
2023-10-03T00:21:30.406Z,19.40
2023-10-03T00:23:02.364Z,19.41
2023-10-03T00:24:34.372Z,19.39
2023-10-03T00:26:08.774Z,19.40
2023-10-03T00:27:41.037Z,19.43
2023-10-03T00:29:19.212Z,19.41
2023-10-03T00:30:51.684Z,19.41
2023-10-03T00:32:23.641Z,19.42
2023-10-03T00:33:55.735Z,19.44
2023-10-03T00:35:30.791Z,19.44
2023-10-03T00:37:02.876Z,19.47
2023-10-03T00:38:35.807Z,19.46
2023-10-03T00:40:22.655Z,19.45
2023-10-03T00:41:54.964Z,19.46
2023-10-03T00:43:26.920Z,19.46
2023-10-03T00:44:58.831Z,19.45
2023-10-03T00:46:31.989Z,19.47
2023-10-03T00:48:08.178Z,19.50
2023-10-03T00:49:40.176Z,19.51
2023-10-03T00:51:12.639Z,19.48
2023-10-03T00:52:45.600Z,19.50
2023-10-03T00:54:17.731Z,19.51
2023-10-03T00:55:49.889Z,19.52
2023-10-03T00:57:23.962Z,19.52
2023-10-03T00:58:56.114Z,19.50
2023-10-03T01:00:28.160Z,19.50
2023-10-03T01:02:07.715Z,19.52
2023-10-03T01:03:40.075Z,19.54
2023-10-03T01:05:20.489Z,19.52
2023-10-03T01:06:53.399Z,19.52
2023-10-03T01:08:25.630Z,19.50
2023-10-03T01:09:57.557Z,19.52
2023-10-03T01:11:30.936Z,19.54
2023-10-03T01:13:18.123Z,19.54
2023-10-03T01:14:50.558Z,19.52
2023-10-03T01:16:34.859Z,19.52
2023-10-03T01:18:10.849Z,19.51
2023-10-03T01:19:43.598Z,19.53
2023-10-03T01:21:16.249Z,19.53
2023-10-03T01:22:51.762Z,19.52
2023-10-03T01:24:26.099Z,19.54
2023-10-03T01:26:00.781Z,19.55
2023-10-03T01:27:32.963Z,19.54
2023-10-03T01:29:05.558Z,19.56
2023-10-03T01:30:37.839Z,19.55
2023-10-03T01:32:11.524Z,19.56
2023-10-03T01:33:43.652Z,19.57
2023-10-03T01:35:15.741Z,19.56
2023-10-03T01:36:50.091Z,19.54
2023-10-03T01:38:22.463Z,19.56
2023-10-03T01:39:54.702Z,19.57
2023-10-03T01:41:26.875Z,19.57
2023-10-03T01:42:59.016Z,19.57
2023-10-03T01:44:31.078Z,19.54
2023-10-03T01:46:03.142Z,19.53
2023-10-03T01:47:35.239Z,19.51
2023-10-03T01:49:07.913Z,19.52
2023-10-03T01:50:40.395Z,19.51
2023-10-03T01:52:12.348Z,19.49
2023-10-03T01:53:44.412Z,19.50
2023-10-03T01:55:18.661Z,19.52
2023-10-03T01:56:51.981Z,19.52
2023-10-03T01:58:25.617Z,19.54
2023-10-03T01:59:57.655Z,19.56
2023-10-03T02:01:29.662Z,19.56
2023-10-03T02:03:20.692Z,19.56
2023-10-03T02:04:54.260Z,19.57
2023-10-03T02:06:26.768Z,19.60
2023-10-03T02:08:17.778Z,19.60
2023-10-03T02:09:51.237Z,19.61
2023-10-03T02:11:28.388Z,19.60
2023-10-03T02:13:00.466Z,19.61
2023-10-03T02:14:32.777Z,19.63
2023-10-03T02:16:04.944Z,19.63
2023-10-03T02:17:37.079Z,19.62
2023-10-03T02:19:09.485Z,19.61
2023-10-03T02:20:49.145Z,19.64
2023-10-03T02:22:21.235Z,19.66
2023-10-03T02:23:53.219Z,19.68
2023-10-03T02:25:30.045Z,19.68
2023-10-03T02:27:02.158Z,19.67
2023-10-03T02:28:35.346Z,19.70
2023-10-03T02:30:13.743Z,19.71
2023-10-03T02:31:46.081Z,19.72
2023-10-03T02:33:19.836Z,19.72
2023-10-03T02:34:52.518Z,19.73
2023-10-03T02:36:24.798Z,19.72
2023-10-03T02:38:00.159Z,19.75
2023-10-03T02:39:41.194Z,19.73
2023-10-03T02:41:14.351Z,19.73
2023-10-03T02:42:48.295Z,19.70
2023-10-03T02:44:20.736Z,19.69
2023-10-03T02:45:52.795Z,19.65
2023-10-03T02:47:25.010Z,19.62
2023-10-03T02:48:57.277Z,19.60
2023-10-03T02:50:30.341Z,19.58
2023-10-03T02:52:02.331Z,19.56
2023-10-03T02:53:35.658Z,19.56
2023-10-03T02:55:10.077Z,19.57
2023-10-03T02:56:42.099Z,19.65
2023-10-03T02:58:14.972Z,19.68
2023-10-03T02:59:48.835Z,19.72
2023-10-03T03:01:22.665Z,19.76
2023-10-03T03:02:55.957Z,19.80
2023-10-03T03:04:31.151Z,19.82
2023-10-03T03:06:11.264Z,19.86
2023-10-03T03:07:48.082Z,19.89
2023-10-03T03:09:25.382Z,19.96
2023-10-03T03:10:59.195Z,19.97
2023-10-03T03:12:31.316Z,20.02
2023-10-03T03:14:03.524Z,20.04
2023-10-03T03:15:38.348Z,20.04
2023-10-03T03:17:15.736Z,20.06
2023-10-03T03:18:51.594Z,20.06
2023-10-03T03:20:27.917Z,20.08
2023-10-03T03:22:02.938Z,20.10
2023-10-03T03:23:39.207Z,20.15
2023-10-03T03:25:11.255Z,20.23
2023-10-03T03:26:49.011Z,20.32
2023-10-03T03:28:25.198Z,20.40
2023-10-03T03:30:15.929Z,20.45
2023-10-03T03:31:48.815Z,20.52
2023-10-03T03:33:21.739Z,20.62
2023-10-03T03:34:54.104Z,20.64
2023-10-03T03:36:31.272Z,20.73
2023-10-03T03:38:06.638Z,20.74
2023-10-03T03:39:38.508Z,20.80
2023-10-03T03:41:10.556Z,20.84
2023-10-03T03:42:43.123Z,20.87
2023-10-03T03:44:15.106Z,20.89
2023-10-03T03:45:47.266Z,20.89
2023-10-03T03:47:19.682Z,20.89
2023-10-03T03:48:52.022Z,20.90
2023-10-03T03:50:24.349Z,20.93
2023-10-03T03:51:56.407Z,20.93
2023-10-03T03:53:28.332Z,20.93
2023-10-03T03:55:05.132Z,20.97
2023-10-03T03:56:37.069Z,21.01
2023-10-03T03:58:15.998Z,21.02
2023-10-03T03:59:48.967Z,21.01
2023-10-03T04:01:25.215Z,21.01
2023-10-03T04:03:02.176Z,21.01
2023-10-03T04:04:34.594Z,21.00
2023-10-03T04:06:06.956Z,21.01
2023-10-03T04:07:39.710Z,20.99
2023-10-03T04:09:11.791Z,20.97
2023-10-03T04:10:44.916Z,20.99
2023-10-03T04:12:16.888Z,20.99
2023-10-03T04:13:51.600Z,21.01
2023-10-03T04:15:24.735Z,21.03
2023-10-03T04:16:56.713Z,21.02
2023-10-03T04:18:28.886Z,21.02
2023-10-03T04:20:00.914Z,21.03
2023-10-03T04:21:33.667Z,21.03
2023-10-03T04:23:06.849Z,21.05
2023-10-03T04:24:38.929Z,21.03
2023-10-03T04:26:10.900Z,21.03
2023-10-03T04:27:43.090Z,21.04
2023-10-03T04:29:16.324Z,21.06
2023-10-03T04:30:51.084Z,21.05
2023-10-03T04:32:22.926Z,21.04
2023-10-03T04:33:54.700Z,21.01
2023-10-03T04:35:26.711Z,21.00
2023-10-03T04:36:59.002Z,20.97
2023-10-03T04:38:31.226Z,20.97
2023-10-03T04:40:05.108Z,20.96
2023-10-03T04:41:37.019Z,20.94
2023-10-03T04:43:16.094Z,20.95
2023-10-03T04:44:47.950Z,20.95
2023-10-03T04:46:19.914Z,20.96
2023-10-03T04:47:51.829Z,20.97
2023-10-03T04:49:23.703Z,20.95
2023-10-03T04:50:55.838Z,20.95
2023-10-03T04:52:28.352Z,20.96
2023-10-03T04:54:00.229Z,20.96
2023-10-03T04:55:33.811Z,20.96
2023-10-03T04:57:06.779Z,20.93
2023-10-03T04:58:39.124Z,20.93
2023-10-03T05:00:11.913Z,20.94
2023-10-03T05:01:44.757Z,20.95
2023-10-03T05:03:16.947Z,20.94
2023-10-03T05:04:49.129Z,20.92
2023-10-03T05:06:21.033Z,20.91
2023-10-03T05:08:00.319Z,20.89
2023-10-03T05:09:33.856Z,20.86
2023-10-03T05:11:07.849Z,20.84
2023-10-03T05:12:39.966Z,20.87
2023-10-03T05:14:13.713Z,20.86
2023-10-03T05:15:46.413Z,20.85
2023-10-03T05:17:18.551Z,20.86
2023-10-03T05:18:50.573Z,20.86
2023-10-03T05:20:22.809Z,20.84
2023-10-03T05:21:54.918Z,20.84
2023-10-03T05:23:26.898Z,20.81
2023-10-03T05:24:59.179Z,20.80
2023-10-03T05:26:31.374Z,20.79
2023-10-03T05:28:03.442Z,20.79
2023-10-03T05:29:35.768Z,20.79
2023-10-03T05:31:14.563Z,20.79
2023-10-03T05:32:46.628Z,20.78
2023-10-03T05:34:21.966Z,20.76
2023-10-03T05:35:54.053Z,20.74
2023-10-03T05:37:26.953Z,20.72
2023-10-03T05:38:58.869Z,20.68
2023-10-03T05:40:31.590Z,20.68
2023-10-03T05:42:03.708Z,20.67
2023-10-03T05:43:35.576Z,20.67
2023-10-03T05:45:08.420Z,20.66
2023-10-03T05:46:41.066Z,20.65
2023-10-03T05:48:13.102Z,20.63
2023-10-03T05:49:45.116Z,20.63
2023-10-03T05:51:16.937Z,20.61
2023-10-03T05:52:49.117Z,20.61
2023-10-03T05:54:21.662Z,20.59
2023-10-03T05:55:53.780Z,20.59
2023-10-03T05:57:25.759Z,20.53
2023-10-03T05:58:57.728Z,20.53
2023-10-03T06:00:29.517Z,20.48
2023-10-03T06:02:01.385Z,20.46
2023-10-03T06:03:33.429Z,20.40
2023-10-03T06:05:07.495Z,20.39
2023-10-03T06:06:39.517Z,20.35
2023-10-03T06:08:13.896Z,20.32
2023-10-03T06:09:45.794Z,20.31
2023-10-03T06:11:18.314Z,20.27
2023-10-03T06:12:54.300Z,20.23
2023-10-03T06:14:26.185Z,20.24
2023-10-03T06:16:00.787Z,20.22
2023-10-03T06:17:33.055Z,20.18
2023-10-03T06:19:05.499Z,20.20
2023-10-03T06:20:37.982Z,20.13
2023-10-03T06:22:10.087Z,20.12
2023-10-03T06:23:42.026Z,20.07
2023-10-03T06:25:14.122Z,20.07
2023-10-03T06:26:48.965Z,20.08
2023-10-03T06:28:20.928Z,20.08
2023-10-03T06:29:53.062Z,20.09
2023-10-03T06:31:25.138Z,20.09
2023-10-03T06:32:57.164Z,20.07
2023-10-03T06:34:29.903Z,20.06
2023-10-03T06:36:07.830Z,20.06
2023-10-03T06:37:39.936Z,20.04
2023-10-03T06:39:14.001Z,20.05
2023-10-03T06:40:46.009Z,20.05
2023-10-03T06:42:19.539Z,20.06
2023-10-03T06:43:51.590Z,20.03
2023-10-03T06:45:23.450Z,20.03
2023-10-03T06:46:55.339Z,20.05
2023-10-03T06:48:28.394Z,20.02
2023-10-03T06:50:00.614Z,20.00
2023-10-03T06:51:32.484Z,20.01
2023-10-03T06:53:04.527Z,20.02
2023-10-03T06:54:36.414Z,20.03
2023-10-03T06:56:08.897Z,20.02
2023-10-03T06:57:42.411Z,20.06
2023-10-03T06:59:14.263Z,20.09
2023-10-03T07:00:46.509Z,20.06
2023-10-03T07:02:19.690Z,20.07
2023-10-03T07:03:53.317Z,20.04
2023-10-03T07:05:25.593Z,20.05
2023-10-03T07:06:57.569Z,20.05
2023-10-03T07:08:29.601Z,20.06
2023-10-03T07:10:01.704Z,20.04
2023-10-03T07:11:34.168Z,20.03
2023-10-03T07:13:06.109Z,20.01
2023-10-03T07:14:38.565Z,20.02
2023-10-03T07:16:10.808Z,20.03
2023-10-03T07:17:42.992Z,20.01
2023-10-03T07:19:17.794Z,20.01
2023-10-03T07:20:49.899Z,20.01
2023-10-03T07:22:21.788Z,19.99
2023-10-03T07:23:54.787Z,20.00
2023-10-03T07:25:26.800Z,19.99
2023-10-03T07:27:02.915Z,19.99
2023-10-03T07:28:35.085Z,20.01
2023-10-03T07:30:07.392Z,20.04
2023-10-03T07:31:39.576Z,20.03
2023-10-03T07:33:13.149Z,20.04
2023-10-03T07:34:47.236Z,20.03
2023-10-03T07:36:19.059Z,20.02
2023-10-03T07:37:53.216Z,20.03
2023-10-03T07:39:27.240Z,20.02
2023-10-03T07:40:59.066Z,20.04
2023-10-03T07:42:34.152Z,20.04
2023-10-03T07:44:06.505Z,20.06
2023-10-03T07:45:41.985Z,20.05
2023-10-03T07:47:15.302Z,20.05
2023-10-03T07:48:47.253Z,20.04
2023-10-03T07:50:19.962Z,20.03
2023-10-03T07:51:55.349Z,20.00
2023-10-03T07:53:31.154Z,20.01
2023-10-03T07:55:06.638Z,19.99
2023-10-03T07:56:43.309Z,20.00
2023-10-03T07:58:16.212Z,19.98
2023-10-03T07:59:48.207Z,19.95
2023-10-03T08:01:20.173Z,19.95
2023-10-03T08:02:52.180Z,19.97
2023-10-03T08:04:24.936Z,19.96
2023-10-03T08:05:59.047Z,19.96
2023-10-03T08:07:32.902Z,19.93
2023-10-03T08:09:05.172Z,19.93
2023-10-03T08:10:37.364Z,19.90
2023-10-03T08:12:13.731Z,19.90
2023-10-03T08:13:45.813Z,19.90
2023-10-03T08:15:20.878Z,19.91
2023-10-03T08:16:57.829Z,19.91
2023-10-03T08:18:29.874Z,19.90
2023-10-03T08:20:06.551Z,19.93
2023-10-03T08:21:42.371Z,19.93
2023-10-03T08:23:15.369Z,19.94
2023-10-03T08:24:47.569Z,19.89
2023-10-03T08:26:23.018Z,19.87
2023-10-03T08:27:57.150Z,19.81
2023-10-03T08:29:29.470Z,19.80
2023-10-03T08:31:07.798Z,19.75
2023-10-03T08:32:41.596Z,19.72
2023-10-03T08:34:14.065Z,19.71
2023-10-03T08:35:47.897Z,19.67
2023-10-03T08:37:23.222Z,19.67
2023-10-03T08:39:06.827Z,19.66
2023-10-03T08:40:40.068Z,19.64
2023-10-03T08:42:15.484Z,19.65
2023-10-03T08:43:48.244Z,19.67
2023-10-03T08:45:27.664Z,19.71
2023-10-03T08:47:00.069Z,19.73
2023-10-03T08:48:32.429Z,19.72
2023-10-03T08:50:13.008Z,19.69
2023-10-03T08:51:45.798Z,19.68
2023-10-03T08:53:17.785Z,19.66
2023-10-03T08:54:56.319Z,19.67
2023-10-03T08:56:29.518Z,19.66
2023-10-03T08:58:01.579Z,19.50
2023-10-03T08:59:33.884Z,19.47
2023-10-03T09:01:06.034Z,19.52
2023-10-03T09:02:48.466Z,19.52
2023-10-03T09:04:21.919Z,19.40
2023-10-03T09:05:54.035Z,19.32
2023-10-03T09:07:25.876Z,19.15
2023-10-03T09:09:10.307Z,19.00
2023-10-03T09:10:56.816Z,18.91
2023-10-03T09:12:29.199Z,18.88
2023-10-03T09:14:01.487Z,18.79
2023-10-03T09:15:33.804Z,18.68
2023-10-03T09:17:06.082Z,18.61
2023-10-03T09:18:44.044Z,18.58
2023-10-03T09:20:21.318Z,18.55
2023-10-03T09:21:53.895Z,18.51
2023-10-03T09:23:25.685Z,18.48
2023-10-03T09:24:57.632Z,18.49
2023-10-03T09:26:48.996Z,18.53
2023-10-03T09:28:29.066Z,18.52
2023-10-03T09:30:00.997Z,18.53
2023-10-03T09:31:33.353Z,18.53
2023-10-03T09:33:10.269Z,18.52
2023-10-03T09:34:42.769Z,18.49
2023-10-03T09:36:14.542Z,18.53
2023-10-03T09:37:49.986Z,18.54
2023-10-03T09:39:24.637Z,18.58
2023-10-03T09:40:57.543Z,18.61
2023-10-03T09:42:32.265Z,18.68
2023-10-03T09:44:06.768Z,18.68
2023-10-03T09:45:38.933Z,18.69
2023-10-03T09:47:10.678Z,18.70
2023-10-03T09:48:42.846Z,18.71
2023-10-03T09:50:14.802Z,18.76
2023-10-03T09:51:52.897Z,18.74
2023-10-03T09:53:29.291Z,18.80
2023-10-03T09:55:02.160Z,18.79
2023-10-03T09:56:37.804Z,18.81
2023-10-03T09:58:10.214Z,18.83
2023-10-03T09:59:42.824Z,18.87
2023-10-03T10:01:14.792Z,18.90
2023-10-03T10:02:48.774Z,19.01
2023-10-03T10:04:21.885Z,19.04
2023-10-03T10:06:15.446Z,19.04
2023-10-03T10:08:00.233Z,19.03
2023-10-03T10:09:34.099Z,19.05
2023-10-03T10:11:10.066Z,19.02
2023-10-03T10:13:01.438Z,18.90
2023-10-03T10:14:42.391Z,18.84
2023-10-03T10:16:22.440Z,18.84
2023-10-03T10:17:56.143Z,18.85
2023-10-03T10:19:42.974Z,18.85
2023-10-03T10:21:27.645Z,18.90
2023-10-03T10:23:15.038Z,18.92
2023-10-03T10:25:05.484Z,18.92
2023-10-03T10:26:37.469Z,18.99
2023-10-03T10:28:15.638Z,18.94
2023-10-03T10:30:00.763Z,18.98
2023-10-03T10:31:40.932Z,18.99
2023-10-03T10:33:25.035Z,18.96
2023-10-03T10:35:03.413Z,19.02
2023-10-03T10:36:53.799Z,19.06
2023-10-03T10:38:34.777Z,19.01
2023-10-03T10:40:16.096Z,18.97
2023-10-03T10:41:48.060Z,19.02
2023-10-03T10:43:21.961Z,19.07
2023-10-03T10:45:15.520Z,19.15
2023-10-03T10:46:48.787Z,19.05
2023-10-03T10:48:38.174Z,19.08
2023-10-03T10:50:21.127Z,19.03
2023-10-03T10:51:58.729Z,19.00
2023-10-03T10:53:56.597Z,18.98
2023-10-03T10:55:28.509Z,18.94
2023-10-03T10:57:01.254Z,18.95
2023-10-03T10:58:33.556Z,18.94
2023-10-03T11:00:14.848Z,18.97
2023-10-03T11:01:48.653Z,18.90
2023-10-03T11:03:21.695Z,18.83
2023-10-03T11:04:54.794Z,18.84
2023-10-03T11:06:27.516Z,18.85
2023-10-03T11:07:59.338Z,18.83
2023-10-03T11:09:31.414Z,18.82
2023-10-03T11:11:03.276Z,18.80
2023-10-03T11:12:37.088Z,18.79
2023-10-03T11:14:09.016Z,18.85
2023-10-03T11:15:47.415Z,18.92
2023-10-03T11:17:19.373Z,18.95
2023-10-03T11:18:51.919Z,18.92
2023-10-03T11:20:23.815Z,18.90
2023-10-03T11:21:55.656Z,18.89
2023-10-03T11:23:28.473Z,18.87
2023-10-03T11:25:01.355Z,18.86
2023-10-03T11:26:46.147Z,18.92
2023-10-03T11:28:18.148Z,18.99
2023-10-03T11:29:50.473Z,19.02
2023-10-03T11:31:22.438Z,19.10
2023-10-03T11:33:01.543Z,19.09
2023-10-03T11:34:35.823Z,19.09
2023-10-03T11:36:08.612Z,19.09
2023-10-03T11:37:47.153Z,19.01
2023-10-03T11:39:25.162Z,19.01
2023-10-03T11:40:57.690Z,19.06
2023-10-03T11:42:29.994Z,19.06
2023-10-03T11:44:02.982Z,19.05
2023-10-03T11:45:35.761Z,19.05
2023-10-03T11:47:07.989Z,19.07
2023-10-03T11:48:39.959Z,19.15
2023-10-03T11:50:11.934Z,19.15
2023-10-03T11:51:44.949Z,19.01
2023-10-03T11:53:17.412Z,18.90
2023-10-03T11:54:49.368Z,18.86
2023-10-03T11:56:21.796Z,18.74
2023-10-03T11:57:53.768Z,18.60
2023-10-03T11:59:25.621Z,18.47
2023-10-03T12:00:58.827Z,18.40
2023-10-03T12:02:30.728Z,18.36
2023-10-03T12:04:03.538Z,18.39
2023-10-03T12:05:36.035Z,18.43
2023-10-03T12:07:07.996Z,18.43
2023-10-03T12:08:42.548Z,18.37
2023-10-03T12:10:15.269Z,18.27
2023-10-03T12:11:47.376Z,18.27
2023-10-03T12:13:19.719Z,18.18
2023-10-03T12:14:51.672Z,18.24
2023-10-03T12:16:23.827Z,18.25
2023-10-03T12:17:56.083Z,18.29
2023-10-03T12:19:28.162Z,18.39
2023-10-03T12:21:00.576Z,18.45
2023-10-03T12:22:32.881Z,18.48
2023-10-03T12:24:05.091Z,18.53
2023-10-03T12:25:37.110Z,18.50
2023-10-03T12:27:09.042Z,18.57
2023-10-03T12:28:41.006Z,18.62
2023-10-03T12:30:13.904Z,18.63
2023-10-03T12:31:46.864Z,18.72
2023-10-03T12:33:20.573Z,18.71
2023-10-03T12:34:52.678Z,18.70
2023-10-03T12:36:24.486Z,18.79
2023-10-03T12:38:00.210Z,18.83
2023-10-03T12:39:32.622Z,18.78
2023-10-03T12:41:06.736Z,18.66
2023-10-03T12:42:40.097Z,18.68
2023-10-03T12:44:12.071Z,18.64
2023-10-03T12:45:44.042Z,18.67
2023-10-03T12:47:15.890Z,18.72
2023-10-03T12:48:48.228Z,18.70
2023-10-03T12:50:24.961Z,18.71
2023-10-03T12:51:56.855Z,18.41
2023-10-03T12:53:37.244Z,18.14
2023-10-03T12:55:09.274Z,18.01
2023-10-03T12:56:41.296Z,17.92
2023-10-03T12:58:19.845Z,17.85
2023-10-03T12:59:53.942Z,17.75
2023-10-03T13:01:26.165Z,17.64
2023-10-03T13:03:02.411Z,17.61
2023-10-03T13:04:34.644Z,17.61
2023-10-03T13:06:06.710Z,17.66
2023-10-03T13:07:38.708Z,17.57
2023-10-03T13:09:11.494Z,17.58
2023-10-03T13:10:43.503Z,17.71
2023-10-03T13:12:15.578Z,17.73
2023-10-03T13:13:49.453Z,17.72
2023-10-03T13:15:21.486Z,17.73
2023-10-03T13:16:59.486Z,17.65
2023-10-03T13:18:31.600Z,17.65
2023-10-03T13:20:06.734Z,17.68
2023-10-03T13:21:40.515Z,17.66
2023-10-03T13:23:12.487Z,17.81
2023-10-03T13:24:44.471Z,17.91
2023-10-03T13:26:17.348Z,18.01
2023-10-03T13:27:49.614Z,18.09
2023-10-03T13:29:21.708Z,18.17
2023-10-03T13:30:53.637Z,18.22
2023-10-03T13:32:25.467Z,18.18
2023-10-03T13:33:58.829Z,18.20
2023-10-03T13:35:31.881Z,18.17
2023-10-03T13:37:03.851Z,18.16
2023-10-03T13:38:35.889Z,18.12
2023-10-03T13:40:08.278Z,18.15
2023-10-03T13:41:44.203Z,18.17
2023-10-03T13:43:20.053Z,18.10
2023-10-03T13:45:01.893Z,18.04
2023-10-03T13:46:33.971Z,18.08
2023-10-03T13:48:05.998Z,18.04
2023-10-03T13:49:37.927Z,18.09
2023-10-03T13:51:09.767Z,18.10
2023-10-03T13:52:44.464Z,18.11
2023-10-03T13:54:16.926Z,18.06
2023-10-03T13:55:49.324Z,18.05
2023-10-03T13:57:21.326Z,18.00
2023-10-03T13:58:53.694Z,18.04
2023-10-03T14:00:25.932Z,18.01
2023-10-03T14:01:57.858Z,17.95
2023-10-03T14:03:31.619Z,17.95
2023-10-03T14:05:05.101Z,17.95
2023-10-03T14:06:37.170Z,17.87
2023-10-03T14:08:09.086Z,17.83
2023-10-03T14:09:41.947Z,17.75
2023-10-03T14:11:22.022Z,17.72
2023-10-03T14:12:53.944Z,17.66
2023-10-03T14:14:27.289Z,17.63
2023-10-03T14:15:59.146Z,17.62
2023-10-03T14:17:31.087Z,17.43
2023-10-03T14:19:03.255Z,17.29
2023-10-03T14:20:35.247Z,17.26
2023-10-03T14:22:07.084Z,17.21
2023-10-03T14:23:39.101Z,17.13
2023-10-03T14:25:14.390Z,17.05
2023-10-03T14:26:46.582Z,17.08
2023-10-03T14:28:18.794Z,17.11
2023-10-03T14:29:50.743Z,17.12
2023-10-03T14:31:22.780Z,17.16
2023-10-03T14:32:55.050Z,17.16
2023-10-03T14:34:27.353Z,17.19
2023-10-03T14:36:00.957Z,17.15
2023-10-03T14:37:32.844Z,17.20
2023-10-03T14:39:05.864Z,17.24
2023-10-03T14:40:39.892Z,17.32
2023-10-03T14:42:13.293Z,17.39
2023-10-03T14:43:45.146Z,17.51
2023-10-03T14:45:19.787Z,17.56
2023-10-03T14:46:52.338Z,17.64
2023-10-03T14:48:27.313Z,17.71
2023-10-03T14:49:59.487Z,17.72
2023-10-03T14:51:32.294Z,17.62
2023-10-03T14:53:04.341Z,17.51
2023-10-03T14:54:36.269Z,17.39
2023-10-03T14:56:08.090Z,17.39
2023-10-03T14:57:40.256Z,17.33
2023-10-03T14:59:12.247Z,17.34
2023-10-03T15:00:44.317Z,17.33
2023-10-03T15:02:16.328Z,17.32
2023-10-03T15:03:52.028Z,17.35
2023-10-03T15:05:24.993Z,17.40
2023-10-03T15:06:56.835Z,17.49
2023-10-03T15:08:28.697Z,17.54
2023-10-03T15:10:03.163Z,17.54
2023-10-03T15:11:35.265Z,17.49
2023-10-03T15:13:08.238Z,17.50
2023-10-03T15:14:40.205Z,17.54
2023-10-03T15:16:12.145Z,17.53
2023-10-03T15:17:44.321Z,17.55
2023-10-03T15:19:18.014Z,17.61
2023-10-03T15:20:52.256Z,17.61
2023-10-03T15:22:24.146Z,17.64
2023-10-03T15:23:55.967Z,17.64
2023-10-03T15:25:27.879Z,17.57
2023-10-03T15:27:00.098Z,17.60
2023-10-03T15:28:32.507Z,17.50
2023-10-03T15:30:07.818Z,17.45
2023-10-03T15:31:41.769Z,17.50
2023-10-03T15:33:13.805Z,17.52
2023-10-03T15:34:45.667Z,17.38
2023-10-03T15:36:17.643Z,17.39
2023-10-03T15:37:50.803Z,17.43
2023-10-03T15:39:23.683Z,17.49
2023-10-03T15:40:55.808Z,17.48
2023-10-03T15:42:28.514Z,17.40
2023-10-03T15:44:00.876Z,17.45
2023-10-03T15:45:33.000Z,17.38
2023-10-03T15:47:05.164Z,17.39
2023-10-03T15:48:39.291Z,17.38
2023-10-03T15:50:11.920Z,17.27
2023-10-03T15:51:44.460Z,17.22
2023-10-03T15:53:17.714Z,17.20
2023-10-03T15:54:49.846Z,17.22
2023-10-03T15:56:23.301Z,17.19
2023-10-03T15:57:55.189Z,17.18
2023-10-03T15:59:28.510Z,17.17
2023-10-03T16:01:00.523Z,17.12
2023-10-03T16:02:32.485Z,17.01
2023-10-03T16:04:05.782Z,17.00
2023-10-03T16:05:37.926Z,16.99
2023-10-03T16:07:09.798Z,16.95
2023-10-03T16:08:45.674Z,16.90
2023-10-03T16:10:20.101Z,16.89
2023-10-03T16:11:54.766Z,16.94
2023-10-03T16:13:26.679Z,16.98
2023-10-03T16:14:58.749Z,16.95
2023-10-03T16:16:31.392Z,16.87
2023-10-03T16:18:03.469Z,16.89
2023-10-03T16:19:35.407Z,16.86
2023-10-03T16:21:08.641Z,16.79
2023-10-03T16:22:40.996Z,16.78
2023-10-03T16:24:13.855Z,16.75
2023-10-03T16:25:47.378Z,16.71
2023-10-03T16:27:19.694Z,16.69
2023-10-03T16:28:51.577Z,16.74
2023-10-03T16:30:24.405Z,16.71
2023-10-03T16:31:56.359Z,16.66
2023-10-03T16:33:28.191Z,16.64
2023-10-03T16:35:02.770Z,16.58
2023-10-03T16:36:35.392Z,16.60
2023-10-03T16:38:07.548Z,16.59
2023-10-03T16:39:40.281Z,16.62
2023-10-03T16:41:12.211Z,16.56
2023-10-03T16:42:47.088Z,16.55
2023-10-03T16:44:19.018Z,16.52
2023-10-03T16:45:50.924Z,16.47
2023-10-03T16:47:22.794Z,16.41
2023-10-03T16:48:55.396Z,16.45
2023-10-03T16:50:27.908Z,16.46
2023-10-03T16:51:59.813Z,16.42
2023-10-03T16:53:31.774Z,16.38
2023-10-03T16:55:03.897Z,16.35
2023-10-03T16:56:36.567Z,16.33
2023-10-03T16:58:08.508Z,16.38
2023-10-03T16:59:40.405Z,16.38
2023-10-03T17:01:12.499Z,16.36
2023-10-03T17:02:44.640Z,16.34
2023-10-03T17:04:18.100Z,16.26
2023-10-03T17:05:50.392Z,16.26
2023-10-03T17:07:23.842Z,16.21
2023-10-03T17:08:55.908Z,16.22
2023-10-03T17:10:27.899Z,16.20
2023-10-03T17:12:00.117Z,16.15
2023-10-03T17:13:32.048Z,16.05
2023-10-03T17:15:05.092Z,16.08
2023-10-03T17:16:37.115Z,16.09
2023-10-03T17:18:09.040Z,16.05
2023-10-03T17:19:41.272Z,16.02
2023-10-03T17:21:13.189Z,15.98
2023-10-03T17:22:45.782Z,15.99
2023-10-03T17:24:17.597Z,15.98
2023-10-03T17:25:49.680Z,15.98
2023-10-03T17:27:21.509Z,15.96
2023-10-03T17:28:53.481Z,15.94
2023-10-03T17:30:26.380Z,15.90
2023-10-03T17:32:01.202Z,15.84
2023-10-03T17:33:33.089Z,15.80
2023-10-03T17:35:11.278Z,15.80
2023-10-03T17:36:46.245Z,15.70
2023-10-03T17:38:21.295Z,15.68
2023-10-03T17:39:53.611Z,15.62
2023-10-03T17:41:26.549Z,15.61
2023-10-03T17:42:58.375Z,15.64
2023-10-03T17:44:30.180Z,15.61
2023-10-03T17:46:02.671Z,15.61
2023-10-03T17:47:35.764Z,15.60
2023-10-03T17:49:07.688Z,15.58
2023-10-03T17:50:39.584Z,15.59
2023-10-03T17:52:11.601Z,15.58
2023-10-03T17:53:43.895Z,15.56
2023-10-03T17:55:15.837Z,15.53
2023-10-03T17:56:48.667Z,15.48
2023-10-03T17:58:20.465Z,15.49
2023-10-03T18:00:05.623Z,15.47
2023-10-03T18:01:38.861Z,15.46
2023-10-03T18:03:11.055Z,15.45
2023-10-03T18:04:43.072Z,15.45
2023-10-03T18:06:14.957Z,15.49
2023-10-03T18:07:48.404Z,15.45
2023-10-03T18:09:28.631Z,15.43
2023-10-03T18:11:02.773Z,15.37
2023-10-03T18:12:34.620Z,15.40
2023-10-03T18:14:06.569Z,15.41
2023-10-03T18:15:38.471Z,15.36
2023-10-03T18:17:10.293Z,15.32
2023-10-03T18:18:42.616Z,15.32
2023-10-03T18:20:15.689Z,15.30
2023-10-03T18:21:47.944Z,15.31
2023-10-03T18:23:21.176Z,15.23
2023-10-03T18:24:53.193Z,15.21
2023-10-03T18:26:25.056Z,15.21
2023-10-03T18:27:57.057Z,15.23
2023-10-03T18:29:28.878Z,15.23
2023-10-03T18:31:00.967Z,15.15
2023-10-03T18:32:32.832Z,15.13
2023-10-03T18:34:05.771Z,15.14
2023-10-03T18:35:37.974Z,15.11
2023-10-03T18:37:09.894Z,15.06
2023-10-03T18:38:43.052Z,15.01
2023-10-03T18:40:23.841Z,14.97
2023-10-03T18:41:55.999Z,14.96
2023-10-03T18:43:27.959Z,14.94
2023-10-03T18:45:00.128Z,14.90
2023-10-03T18:46:32.208Z,14.86
2023-10-03T18:48:04.608Z,14.85
2023-10-03T18:49:36.523Z,14.84
2023-10-03T18:51:08.511Z,14.84
2023-10-03T18:52:41.089Z,14.85
2023-10-03T18:54:13.418Z,14.83
2023-10-03T18:55:45.390Z,14.80
2023-10-03T18:57:17.463Z,14.79
2023-10-03T18:58:49.555Z,14.78
2023-10-03T19:00:23.912Z,14.77
2023-10-03T19:01:56.799Z,14.78
2023-10-03T19:03:28.924Z,14.74
2023-10-03T19:05:01.091Z,14.71
2023-10-03T19:06:38.359Z,14.73
2023-10-03T19:08:10.395Z,14.72
2023-10-03T19:09:42.751Z,14.71
2023-10-03T19:11:21.286Z,14.72
2023-10-03T19:12:53.361Z,14.67
2023-10-03T19:14:25.240Z,14.64
2023-10-03T19:15:57.187Z,14.65
2023-10-03T19:17:29.298Z,14.68
2023-10-03T19:19:01.391Z,14.67
2023-10-03T19:20:33.589Z,14.67
2023-10-03T19:22:08.663Z,14.70
2023-10-03T19:23:42.659Z,14.67
2023-10-03T19:25:15.117Z,14.65
2023-10-03T19:26:47.034Z,14.65
2023-10-03T19:28:19.120Z,14.65
2023-10-03T19:29:54.083Z,14.64
2023-10-03T19:31:28.741Z,14.66
2023-10-03T19:33:06.933Z,14.64
2023-10-03T19:34:39.254Z,14.66
2023-10-03T19:36:11.761Z,14.66
2023-10-03T19:37:44.452Z,14.66
2023-10-03T19:39:16.371Z,14.63
2023-10-03T19:40:49.578Z,14.61
2023-10-03T19:42:23.325Z,14.62
2023-10-03T19:43:56.428Z,14.61
2023-10-03T19:45:29.453Z,14.63
2023-10-03T19:47:02.652Z,14.63
2023-10-03T19:48:35.013Z,14.65
2023-10-03T19:50:08.999Z,14.65
2023-10-03T19:51:40.916Z,14.61
2023-10-03T19:53:12.818Z,14.63
2023-10-03T19:54:44.877Z,14.66
2023-10-03T19:56:23.498Z,14.65
2023-10-03T19:57:56.160Z,14.62
2023-10-03T19:59:28.873Z,14.59
2023-10-03T20:01:00.817Z,14.60
2023-10-03T20:02:32.982Z,14.61
2023-10-03T20:04:10.132Z,14.62
2023-10-03T20:05:43.135Z,14.61
2023-10-03T20:07:16.634Z,14.61